Time;durP1;ratioP1;P1;durP2;ratioP2;P2;SDS_P1;SDS_P2;PMS_P1;PMS_P2;Temp;Humidity;BMP_temperature;BMP_pressure;BME280_temperature;BME280_humidity;BME280_pressure;Samples;Min_cycle;Max_cycle;Signal;HPM_P1;HPM_P2
2023/10/24 00:00:57;;;;;;;;;;;12.40;99.60;;;;;;5114272;27;20600;-84
2023/10/24 00:03:25;;;;;;;;;;;12.40;99.60;;;;;;5120259;27;20029;-84
2023/10/24 00:05:52;;;;;;;;;;;12.40;99.60;;;;;;5122738;27;20493;-83
2023/10/24 00:08:19;;;;;;;;;;;12.40;99.60;;;;;;5119204;27;20391;-84
2023/10/24 00:10:46;;;;;;;;;;;12.40;99.60;;;;;;5119081;27;19975;-84
2023/10/24 00:13:12;;;;;;;;;;;12.40;99.60;;;;;;5116419;27;19998;-84
2023/10/24 00:15:39;;;;;;;;;;;12.40;99.60;;;;;;5120657;27;20088;-84
2023/10/24 00:18:07;;;;;;;;;;;12.40;99.60;;;;;;5120101;27;19990;-84
2023/10/24 00:20:35;;;;;;;;;;;12.40;99.60;;;;;;5119365;27;19990;-84
2023/10/24 00:23:01;;;;;;;;;;;12.40;99.60;;;;;;5116054;27;19990;-84
2023/10/24 00:25:28;;;;;;;;;;;12.30;99.60;;;;;;5112623;27;20054;-83
2023/10/24 00:27:55;;;;;;;;;;;12.40;99.60;;;;;;5116845;27;20514;-83
2023/10/24 00:30:22;;;;;;;;;;;12.40;99.60;;;;;;5118683;27;20039;-83
2023/10/24 00:32:49;;;;;;;;;;;12.30;99.60;;;;;;5120161;27;19994;-83
2023/10/24 00:35:16;;;;;;;;;;;12.30;99.60;;;;;;5115928;27;19986;-83
2023/10/24 00:37:45;;;;;;;;;;;12.30;99.60;;;;;;5121259;27;19983;-83
2023/10/24 00:40:12;;;;;;;;;;;12.30;99.60;;;;;;5114619;27;19979;-83
2023/10/24 00:42:39;;;;;;;;;;;12.30;99.90;;;;;;5111746;27;19998;-83
2023/10/24 00:45:06;;;;;;;;;;;12.40;99.60;;;;;;5112582;27;20475;-83
2023/10/24 00:47:33;;;;;;;;;;;12.30;99.60;;;;;;5117619;27;19998;-84
2023/10/24 00:50:00;;;;;;;;;;;12.40;99.70;;;;;;5115858;27;20109;-83
2023/10/24 00:52:27;;;;;;;;;;;12.30;99.60;;;;;;5120676;27;19995;-84
2023/10/24 00:54:55;;;;;;;;;;;12.30;99.70;;;;;;5121208;27;19985;-84
2023/10/24 00:57:22;;;;;;;;;;;12.30;99.70;;;;;;5115941;27;20803;-84
2023/10/24 00:59:49;;;;;;;;;;;12.30;99.60;;;;;;5117199;27;19975;-84
2023/10/24 01:02:16;;;;;;;;;;;12.30;99.60;;;;;;5114933;27;20055;-83
2023/10/24 01:04:43;;;;;;;;;;;12.30;99.70;;;;;;5114281;27;19985;-83
2023/10/24 01:07:09;;;;;;;;;;;12.30;99.70;;;;;;5115598;27;19975;-83
2023/10/24 01:09:36;;;;;;;;;;;12.30;99.70;;;;;;5117646;27;19981;-83
2023/10/24 01:12:04;;;;;;;;;;;12.30;99.70;;;;;;5114590;27;19995;-83
2023/10/24 01:14:31;;;;;;;;;;;12.30;99.70;;;;;;5112280;27;19975;-83
2023/10/24 01:16:58;;;;;;;;;;;12.30;99.70;;;;;;5113877;27;19994;-83
2023/10/24 01:19:24;;;;;;;;;;;12.20;99.60;;;;;;5118390;27;19981;-84
2023/10/24 01:21:52;;;;;;;;;;;12.30;99.70;;;;;;5112739;27;19998;-83
2023/10/24 01:24:19;;;;;;;;;;;12.20;99.70;;;;;;5116580;27;19981;-83
2023/10/24 01:26:46;;;;;;;;;;;12.20;99.70;;;;;;5114824;27;19982;-84
2023/10/24 01:29:13;;;;;;;;;;;12.20;99.70;;;;;;5112764;27;20589;-83
2023/10/24 01:31:40;;;;;;;;;;;12.20;99.70;;;;;;5114555;27;19994;-83
2023/10/24 01:34:06;;;;;;;;;;;12.20;99.70;;;;;;5113923;27;20044;-84
2023/10/24 01:36:33;;;;;;;;;;;12.20;99.90;;;;;;5111634;27;20026;-84
2023/10/24 01:39:01;;;;;;;;;;;12.20;99.70;;;;;;5114990;27;19981;-84
2023/10/24 01:41:28;;;;;;;;;;;12.20;99.70;;;;;;5118927;27;20055;-84
2023/10/24 01:43:55;;;;;;;;;;;12.20;99.70;;;;;;5113987;27;20000;-83
2023/10/24 01:46:22;;;;;;;;;;;12.20;99.70;;;;;;5119592;27;20021;-84
2023/10/24 01:48:48;;;;;;;;;;;12.20;99.70;;;;;;5116113;27;19970;-83
2023/10/24 01:51:15;;;;;;;;;;;12.20;99.70;;;;;;5114970;27;19974;-84
2023/10/24 01:53:41;;;;;;;;;;;12.20;99.70;;;;;;5115798;27;19991;-84
2023/10/24 01:56:12;;;;;;;;;;;12.10;99.70;;;;;;5111533;27;19982;-83
2023/10/24 01:58:38;;;;;;;;;;;12.20;99.70;;;;;;5119635;27;19974;-84
2023/10/24 02:01:05;;;;;;;;;;;12.20;99.80;;;;;;5111720;27;20450;-84
2023/10/24 02:03:32;;;;;;;;;;;12.20;99.80;;;;;;5115950;27;19994;-84
2023/10/24 02:05:59;;;;;;;;;;;12.20;99.80;;;;;;5114632;27;19974;-84
2023/10/24 02:08:25;;;;;;;;;;;12.20;99.80;;;;;;5118288;27;19974;-84
2023/10/24 02:10:52;;;;;;;;;;;12.10;99.70;;;;;;5117321;27;19981;-84
2023/10/24 02:13:20;;;;;;;;;;;12.20;99.80;;;;;;5118899;27;19991;-84
2023/10/24 02:15:47;;;;;;;;;;;12.20;99.80;;;;;;5115714;27;20304;-84
2023/10/24 02:18:13;;;;;;;;;;;12.20;99.80;;;;;;5115168;27;19982;-82
2023/10/24 02:20:40;;;;;;;;;;;12.20;99.80;;;;;;5115667;27;19974;-84
2023/10/24 02:23:06;;;;;;;;;;;12.10;99.80;;;;;;5115218;27;20020;-83
2023/10/24 02:25:35;;;;;;;;;;;12.20;99.80;;;;;;5116588;27;20014;-83
2023/10/24 02:28:02;;;;;;;;;;;12.10;99.80;;;;;;5116808;27;20663;-84
2023/10/24 02:30:30;;;;;;;;;;;12.10;99.80;;;;;;5117450;27;20002;-84
2023/10/24 02:33:00;;;;;;;;;;;12.10;99.80;;;;;;5118084;27;20355;-83
2023/10/24 02:35:27;;;;;;;;;;;12.10;99.80;;;;;;5119114;27;20073;-83
2023/10/24 02:37:53;;;;;;;;;;;12.10;99.80;;;;;;5112779;27;20033;-82
2023/10/24 02:40:20;;;;;;;;;;;12.10;99.80;;;;;;5121536;27;20370;-81
2023/10/24 02:42:47;;;;;;;;;;;12.10;99.80;;;;;;5117301;27;20538;-83
2023/10/24 02:45:14;;;;;;;;;;;12.20;99.90;;;;;;5116675;27;20069;-84
2023/10/24 02:47:42;;;;;;;;;;;12.10;99.80;;;;;;5102876;28;19975;-83
2023/10/24 02:50:09;;;;;;;;;;;12.10;99.90;;;;;;5097351;28;19975;-83
2023/10/24 02:52:35;;;;;;;;;;;12.10;99.90;;;;;;5086814;28;20196;-84
2023/10/24 02:55:03;;;;;;;;;;;12.10;99.90;;;;;;5098115;27;19985;-83
2023/10/24 02:57:31;;;;;;;;;;;12.10;99.90;;;;;;5094171;28;20408;-83
2023/10/24 02:59:57;;;;;;;;;;;12.10;99.90;;;;;;5096554;28;20089;-84
2023/10/24 03:02:24;;;;;;;;;;;12.10;99.90;;;;;;5094254;28;19994;-83
2023/10/24 03:04:52;;;;;;;;;;;12.10;99.90;;;;;;5101866;28;19983;-83
2023/10/24 03:07:19;;;;;;;;;;;12.10;99.90;;;;;;5107576;27;19998;-83
2023/10/24 03:09:46;;;;;;;;;;;12.10;99.90;;;;;;5102700;28;19971;-83
2023/10/24 03:12:13;;;;;;;;;;;12.10;99.90;;;;;;5084425;28;20044;-83
2023/10/24 03:14:40;;;;;;;;;;;12.10;99.90;;;;;;5099285;28;19975;-84
2023/10/24 03:17:06;;;;;;;;;;;12.00;99.90;;;;;;5099957;27;19991;-84
2023/10/24 03:19:33;;;;;;;;;;;12.10;99.90;;;;;;5102448;28;19979;-83
2023/10/24 03:22:01;;;;;;;;;;;12.10;99.90;;;;;;5103149;28;20062;-83
2023/10/24 03:24:28;;;;;;;;;;;12.10;99.90;;;;;;5107325;27;20522;-84
2023/10/24 03:26:55;;;;;;;;;;;12.10;99.90;;;;;;5107459;27;20077;-82
2023/10/24 03:29:21;;;;;;;;;;;12.10;99.90;;;;;;5102784;27;19989;-82
2023/10/24 03:31:48;;;;;;;;;;;12.10;99.90;;;;;;5098047;27;20113;-84
2023/10/24 03:34:15;;;;;;;;;;;12.10;99.90;;;;;;5105479;27;19975;-84
2023/10/24 03:36:41;;;;;;;;;;;12.10;99.90;;;;;;5098227;28;20005;-83
2023/10/24 03:39:09;;;;;;;;;;;12.10;99.90;;;;;;5103256;27;20762;-83
2023/10/24 03:41:36;;;;;;;;;;;12.10;99.90;;;;;;5099126;27;20109;-83
2023/10/24 03:44:03;;;;;;;;;;;12.10;99.90;;;;;;5101047;27;19978;-83
2023/10/24 03:46:29;;;;;;;;;;;12.10;99.90;;;;;;5101140;27;20562;-83
2023/10/24 03:48:57;;;;;;;;;;;12.10;99.90;;;;;;5099314;27;20050;-83
2023/10/24 03:51:24;;;;;;;;;;;12.10;99.90;;;;;;5101767;28;20042;-84
2023/10/24 03:53:51;;;;;;;;;;;12.00;99.90;;;;;;5106198;27;20028;-83
2023/10/24 03:56:19;;;;;;;;;;;12.10;99.90;;;;;;5106428;27;19975;-83
2023/10/24 03:58:46;;;;;;;;;;;12.10;99.90;;;;;;5101596;27;19981;-83
2023/10/24 04:01:13;;;;;;;;;;;12.10;99.90;;;;;;5102798;27;20886;-83
2023/10/24 04:03:39;;;;;;;;;;;12.00;99.90;;;;;;5098446;27;20060;-84
2023/10/24 04:06:09;;;;;;;;;;;12.00;99.90;;;;;;5102647;27;20509;-84
2023/10/24 04:08:36;;;;;;;;;;;12.10;99.90;;;;;;5100425;28;19975;-84
2023/10/24 04:11:03;;;;;;;;;;;12.00;99.90;;;;;;5097752;27;19978;-84
2023/10/24 04:13:31;;;;;;;;;;;12.00;99.90;;;;;;5100578;27;20095;-83
2023/10/24 04:15:58;;;;;;;;;;;12.00;99.90;;;;;;5098149;27;20002;-84
2023/10/24 04:18:24;;;;;;;;;;;12.00;99.90;;;;;;5102226;27;20005;-84
2023/10/24 04:20:51;;;;;;;;;;;12.10;99.90;;;;;;5105505;27;20105;-84
2023/10/24 04:23:17;;;;;;;;;;;12.10;99.90;;;;;;5099355;27;20006;-84
2023/10/24 04:25:44;;;;;;;;;;;12.00;99.90;;;;;;5104205;28;19981;-84
2023/10/24 04:28:11;;;;;;;;;;;12.00;99.90;;;;;;5096243;27;19979;-83
2023/10/24 04:30:40;;;;;;;;;;;12.00;99.90;;;;;;5101255;27;19997;-81
2023/10/24 04:33:07;;;;;;;;;;;12.00;99.90;;;;;;5100630;27;20088;-81
2023/10/24 04:35:40;;;;;;;;;;;12.00;99.90;;;;;;5098602;27;19979;-83
2023/10/24 04:38:07;;;;;;;;;;;12.00;99.90;;;;;;5097926;28;19979;-84
2023/10/24 04:40:37;;;;;;;;;;;12.00;99.90;;;;;;5101462;27;19986;-83
2023/10/24 04:43:03;;;;;;;;;;;12.00;99.90;;;;;;5095550;27;20006;-84
2023/10/24 04:45:31;;;;;;;;;;;12.00;99.90;;;;;;5098596;27;19991;-84
2023/10/24 04:48:00;;;;;;;;;;;12.00;99.90;;;;;;5095416;27;20710;-84
2023/10/24 04:50:27;;;;;;;;;;;12.00;99.90;;;;;;5094050;28;20069;-84
2023/10/24 04:52:53;;;;;;;;;;;12.10;99.90;;;;;;5099485;28;20005;-83
2023/10/24 04:55:20;;;;;;;;;;;12.00;99.90;;;;;;5097266;28;20313;-83
2023/10/24 04:57:47;;;;;;;;;;;12.00;99.90;;;;;;5101435;27;19982;-84
2023/10/24 05:00:14;;;;;;;;;;;12.00;99.90;;;;;;5096487;28;20014;-84
2023/10/24 05:02:42;;;;;;;;;;;12.00;99.90;;;;;;5097396;28;20006;-83
2023/10/24 05:05:10;;;;;;;;;;;12.00;99.90;;;;;;5095741;28;20082;-84
2023/10/24 05:07:37;;;;;;;;;;;12.00;99.90;;;;;;5101409;28;19986;-84
2023/10/24 05:10:04;;;;;;;;;;;12.00;99.90;;;;;;5100860;27;20603;-84
2023/10/24 05:12:32;;;;;;;;;;;12.00;99.90;;;;;;5093809;28;20032;-83
2023/10/24 05:14:59;;;;;;;;;;;11.90;99.90;;;;;;5095163;28;19990;-84
2023/10/24 05:17:26;;;;;;;;;;;12.00;99.90;;;;;;5113685;27;20093;-84
2023/10/24 05:19:53;;;;;;;;;;;12.00;99.90;;;;;;5124854;27;19992;-84
2023/10/24 05:22:21;;;;;;;;;;;12.00;99.90;;;;;;5118098;27;20455;-84
2023/10/24 05:24:48;;;;;;;;;;;12.00;99.90;;;;;;5123224;27;19997;-84
2023/10/24 05:27:14;;;;;;;;;;;12.00;99.90;;;;;;5120397;27;19986;-85
2023/10/24 05:29:42;;;;;;;;;;;12.00;99.90;;;;;;5112642;27;19983;-85
2023/10/24 05:32:09;;;;;;;;;;;12.00;99.90;;;;;;5121834;27;20081;-84
2023/10/24 05:34:35;;;;;;;;;;;12.00;99.90;;;;;;5124396;27;19974;-84
2023/10/24 05:37:02;;;;;;;;;;;12.00;99.90;;;;;;5119841;27;19978;-85
2023/10/24 05:39:31;;;;;;;;;;;12.00;99.90;;;;;;5119955;27;20484;-83
2023/10/24 05:41:58;;;;;;;;;;;12.00;99.90;;;;;;5123255;27;19994;-83
2023/10/24 05:44:25;;;;;;;;;;;12.00;99.90;;;;;;5121362;27;19986;-83
2023/10/24 05:46:53;;;;;;;;;;;12.00;99.90;;;;;;5122195;27;20080;-82
2023/10/24 05:49:20;;;;;;;;;;;12.00;99.90;;;;;;5113702;27;19978;-83
2023/10/24 05:51:47;;;;;;;;;;;12.00;99.90;;;;;;5117712;27;19990;-84
2023/10/24 05:54:14;;;;;;;;;;;11.90;99.90;;;;;;5112916;27;20741;-84
2023/10/24 05:56:42;;;;;;;;;;;12.00;99.90;;;;;;5113561;27;19975;-85
2023/10/24 05:59:09;;;;;;;;;;;11.90;99.90;;;;;;5109563;27;20450;-84
2023/10/24 06:01:35;;;;;;;;;;;12.00;99.90;;;;;;5116058;27;19994;-84
2023/10/24 06:04:02;;;;;;;;;;;12.00;99.90;;;;;;5112106;27;20002;-84
2023/10/24 06:06:28;;;;;;;;;;;12.00;99.90;;;;;;5110232;27;19986;-83
2023/10/24 06:08:55;;;;;;;;;;;12.00;99.90;;;;;;5117626;27;19982;-84
2023/10/24 06:11:21;;;;;;;;;;;12.00;99.90;;;;;;5115639;27;19986;-83
2023/10/24 06:13:50;;;;;;;;;;;12.00;99.90;;;;;;5119915;27;20700;-83
2023/10/24 06:16:17;;;;;;;;;;;12.00;99.90;;;;;;5119053;27;20550;-83
2023/10/24 06:18:44;;;;;;;;;;;12.00;99.90;;;;;;5114354;27;20020;-84
2023/10/24 06:21:12;;;;;;;;;;;11.90;99.90;;;;;;5114546;27;19978;-83
2023/10/24 06:23:39;;;;;;;;;;;12.00;99.90;;;;;;5112349;27;20073;-83
2023/10/24 06:26:11;;;;;;;;;;;12.00;99.90;;;;;;5116373;27;20665;-83
2023/10/24 06:28:38;;;;;;;;;;;12.00;99.90;;;;;;5119208;27;20065;-84
2023/10/24 06:31:06;;;;;;;;;;;12.00;99.90;;;;;;5118713;27;20018;-84
2023/10/24 06:33:33;;;;;;;;;;;12.00;99.90;;;;;;5117783;27;19990;-84
2023/10/24 06:35:59;;;;;;;;;;;12.00;99.90;;;;;;5116245;27;20686;-84
2023/10/24 06:38:26;;;;;;;;;;;12.00;99.90;;;;;;5112845;27;20077;-84
2023/10/24 06:40:53;;;;;;;;;;;12.00;99.90;;;;;;5113162;27;19990;-84
2023/10/24 06:43:20;;;;;;;;;;;12.00;99.90;;;;;;5114290;27;20607;-84
2023/10/24 06:45:47;;;;;;;;;;;12.00;99.90;;;;;;5113532;27;19995;-83
2023/10/24 06:48:15;;;;;;;;;;;12.00;99.90;;;;;;5118984;27;20108;-83
2023/10/24 06:50:42;;;;;;;;;;;12.00;99.90;;;;;;5112101;27;19975;-84
2023/10/24 06:53:09;;;;;;;;;;;12.00;99.90;;;;;;5111846;27;20029;-83
2023/10/24 06:55:36;;;;;;;;;;;12.00;99.90;;;;;;5114204;27;20694;-83
2023/10/24 06:58:03;;;;;;;;;;;12.00;99.90;;;;;;5113232;27;19982;-83
2023/10/24 07:00:30;;;;;;;;;;;12.00;99.90;;;;;;5112846;27;20030;-83
2023/10/24 07:02:57;;;;;;;;;;;12.00;99.90;;;;;;5114157;27;19998;-83
2023/10/24 07:05:26;;;;;;;;;;;12.00;99.90;;;;;;5117720;27;19997;-83
2023/10/24 07:07:52;;;;;;;;;;;12.00;99.90;;;;;;5115658;27;19983;-83
2023/10/24 07:10:20;;;;;;;;;;;12.00;99.90;;;;;;5118557;27;19998;-83
2023/10/24 07:12:47;;;;;;;;;;;12.00;99.90;;;;;;5112648;27;20005;-82
2023/10/24 07:15:13;;;;;;;;;;;12.00;99.90;;;;;;5118762;27;19979;-83
2023/10/24 07:17:40;;;;;;;;;;;12.00;99.90;;;;;;5119751;27;19979;-82
2023/10/24 07:20:07;;;;;;;;;;;12.10;99.90;;;;;;5118449;27;20361;-83
2023/10/24 07:22:35;;;;;;;;;;;12.00;99.90;;;;;;5116423;27;20826;-83
2023/10/24 07:25:02;;;;;;;;;;;12.00;99.90;;;;;;5115838;28;20564;-83
2023/10/24 07:27:28;;;;;;;;;;;12.00;99.90;;;;;;5122464;27;19981;-83
2023/10/24 07:29:55;;;;;;;;;;;12.00;99.90;;;;;;5115349;27;20430;-83
2023/10/24 07:32:22;;;;;;;;;;;12.00;99.90;;;;;;5120551;27;20082;-83
2023/10/24 07:34:48;;;;;;;;;;;12.00;99.90;;;;;;5121872;27;20000;-82
2023/10/24 07:37:15;;;;;;;;;;;12.00;99.90;;;;;;5119872;27;19974;-83
2023/10/24 07:39:43;;;;;;;;;;;12.00;99.90;;;;;;5109896;28;20374;-83
2023/10/24 07:42:10;;;;;;;;;;;12.00;99.90;;;;;;5121717;27;20001;-83
2023/10/24 07:44:37;;;;;;;;;;;12.00;99.90;;;;;;5114943;27;19995;-83
2023/10/24 07:47:04;;;;;;;;;;;12.00;99.90;;;;;;5113978;27;20085;-82
2023/10/24 07:49:34;;;;;;;;;;;12.10;99.90;;;;;;5118813;27;19978;-83
2023/10/24 07:52:00;;;;;;;;;;;12.00;99.90;;;;;;5114174;27;19994;-82
2023/10/24 07:54:28;;;;;;;;;;;12.00;99.90;;;;;;5115026;27;20446;-82
2023/10/24 07:56:57;;;;;;;;;;;12.00;99.90;;;;;;5116306;27;19978;-82
2023/10/24 07:59:23;;;;;;;;;;;12.00;99.90;;;;;;5119524;27;19978;-82
2023/10/24 08:01:50;;;;;;;;;;;12.00;99.90;;;;;;5113156;27;20672;-83
2023/10/24 08:04:16;;;;;;;;;;;12.00;99.90;;;;;;5118181;27;20001;-83
2023/10/24 08:06:43;;;;;;;;;;;12.00;99.90;;;;;;5120556;27;19979;-83
2023/10/24 08:09:10;;;;;;;;;;;12.10;99.90;;;;;;5118251;27;20191;-83
2023/10/24 08:11:36;;;;;;;;;;;12.10;99.90;;;;;;5123160;27;20552;-83
2023/10/24 08:14:05;;;;;;;;;;;12.10;99.90;;;;;;5126313;27;20647;-83
2023/10/24 08:16:33;;;;;;;;;;;12.10;99.90;;;;;;5122479;27;20033;-82
2023/10/24 08:18:59;;;;;;;;;;;12.10;99.90;;;;;;5116940;27;20081;-82
2023/10/24 08:21:26;;;;;;;;;;;12.10;99.90;;;;;;5123083;27;20472;-83
2023/10/24 08:23:53;;;;;;;;;;;12.00;99.90;;;;;;5119948;27;20009;-82
2023/10/24 08:26:20;;;;;;;;;;;12.10;99.90;;;;;;5120847;27;19978;-83
2023/10/24 08:28:46;;;;;;;;;;;12.10;99.90;;;;;;5121006;27;20035;-83
2023/10/24 08:31:15;;;;;;;;;;;12.10;99.90;;;;;;5119617;27;20089;-82
2023/10/24 08:33:41;;;;;;;;;;;12.10;99.90;;;;;;5104243;27;20022;-83
2023/10/24 08:36:08;;;;;;;;;;;12.10;99.90;;;;;;5119707;27;20397;-83
2023/10/24 08:38:35;;;;;;;;;;;12.10;99.90;;;;;;5118311;27;20423;-84
2023/10/24 08:41:01;;;;;;;;;;;12.10;99.90;;;;;;5118633;27;20039;-83
2023/10/24 08:43:28;;;;;;;;;;;12.10;99.90;;;;;;5118231;27;20051;-85
2023/10/24 08:45:55;;;;;;;;;;;12.10;99.90;;;;;;5111589;27;20845;-83
2023/10/24 08:48:23;;;;;;;;;;;12.10;99.90;;;;;;5120631;27;19974;-83
2023/10/24 08:50:50;;;;;;;;;;;12.10;99.90;;;;;;5115903;27;20578;-83
2023/10/24 08:53:17;;;;;;;;;;;12.10;99.90;;;;;;5118415;27;19998;-83
2023/10/24 08:55:49;;;;;;;;;;;12.10;99.90;;;;;;5115063;27;20138;-82
2023/10/24 08:58:17;;;;;;;;;;;12.10;99.90;;;;;;5117105;27;20442;-82
2023/10/24 09:00:44;;;;;;;;;;;12.10;99.80;;;;;;5118479;27;19995;-83
2023/10/24 09:03:10;;;;;;;;;;;12.10;99.80;;;;;;5117137;27;19999;-82
2023/10/24 09:05:40;;;;;;;;;;;12.20;99.80;;;;;;5118674;27;19986;-83
2023/10/24 09:08:06;;;;;;;;;;;12.20;99.80;;;;;;5118775;27;20123;-84
2023/10/24 09:10:33;;;;;;;;;;;12.20;99.80;;;;;;5117202;27;19978;-83
2023/10/24 09:12:59;;;;;;;;;;;12.20;99.80;;;;;;5104407;27;19998;-85
2023/10/24 09:15:27;;;;;;;;;;;12.20;99.80;;;;;;5122507;27;20002;-83
2023/10/24 09:17:55;;;;;;;;;;;12.20;99.80;;;;;;5120360;27;19978;-85
2023/10/24 09:20:21;;;;;;;;;;;12.20;99.70;;;;;;5120631;27;19983;-84
2023/10/24 09:22:51;;;;;;;;;;;12.20;99.70;;;;;;5120934;27;19990;-82
2023/10/24 09:25:21;;;;;;;;;;;12.20;99.70;;;;;;5117896;27;19994;-83
2023/10/24 09:27:47;;;;;;;;;;;12.20;99.70;;;;;;5118706;27;19982;-83
2023/10/24 09:30:14;;;;;;;;;;;12.20;99.70;;;;;;5117091;27;19978;-84
2023/10/24 09:32:41;;;;;;;;;;;12.20;99.70;;;;;;5118794;27;19994;-82
2023/10/24 09:35:08;;;;;;;;;;;12.20;99.70;;;;;;5116457;27;19982;-84
2023/10/24 09:37:39;;;;;;;;;;;12.20;99.70;;;;;;5121314;27;19974;-82
2023/10/24 09:40:08;;;;;;;;;;;12.20;99.70;;;;;;5121241;27;19978;-82
2023/10/24 09:42:34;;;;;;;;;;;12.30;99.80;;;;;;5114716;27;19994;-83
2023/10/24 09:45:04;;;;;;;;;;;12.20;99.90;;;;;;5118238;27;20001;-84
2023/10/24 09:47:32;;;;;;;;;;;12.20;99.90;;;;;;5120393;27;19994;-84
2023/10/24 09:49:58;;;;;;;;;;;12.30;99.90;;;;;;5117441;27;19981;-83
2023/10/24 09:52:26;;;;;;;;;;;12.30;99.90;;;;;;5109122;27;19987;-82
2023/10/24 09:54:52;;;;;;;;;;;12.30;99.90;;;;;;5119867;27;19983;-83
2023/10/24 09:57:21;;;;;;;;;;;12.30;99.90;;;;;;5119035;27;19985;-84
2023/10/24 09:59:49;;;;;;;;;;;12.30;99.90;;;;;;5110437;27;20013;-82
2023/10/24 10:02:16;;;;;;;;;;;12.30;99.90;;;;;;5112201;27;19999;-80
2023/10/24 10:04:43;;;;;;;;;;;12.30;99.90;;;;;;5114187;27;19997;-81
2023/10/24 10:07:11;;;;;;;;;;;12.30;99.90;;;;;;5120532;27;20490;-81
2023/10/24 10:09:41;;;;;;;;;;;12.30;99.90;;;;;;5117699;27;20382;-81
2023/10/24 10:12:10;;;;;;;;;;;12.30;99.90;;;;;;5112952;27;20478;-82
2023/10/24 10:14:40;;;;;;;;;;;12.30;99.90;;;;;;5116073;27;20526;-81
2023/10/24 10:17:11;;;;;;;;;;;12.30;99.90;;;;;;5114757;27;19991;-81
2023/10/24 10:19:46;;;;;;;;;;;12.30;99.80;;;;;;5122022;27;19974;-81
2023/10/24 10:22:19;;;;;;;;;;;12.40;99.80;;;;;;5115518;27;19990;-81
2023/10/24 10:25:07;;;;;;;;;;;12.40;99.80;;;;;;5112723;27;20037;-81
2023/10/24 10:27:39;;;;;;;;;;;12.30;99.70;;;;;;5113554;27;20475;-81
2023/10/24 10:30:14;;;;;;;;;;;12.40;99.70;;;;;;5119093;27;19981;-82
2023/10/24 10:32:45;;;;;;;;;;;12.40;99.70;;;;;;5117225;27;20474;-82
2023/10/24 10:35:12;;;;;;;;;;;12.40;99.70;;;;;;5122582;27;19985;-82
2023/10/24 10:37:38;;;;;;;;;;;12.40;99.60;;;;;;5119005;27;20662;-81
2023/10/24 10:40:24;;;;;;;;;;;12.40;99.70;;;;;;5118897;27;20490;-82
2023/10/24 10:42:51;;;;;;;;;;;12.40;99.70;;;;;;5117619;27;20478;-81
2023/10/24 10:45:37;;;;;;;;;;;12.40;99.70;;;;;;5113847;27;20002;-82
2023/10/24 10:48:05;;;;;;;;;;;12.40;99.80;;;;;;5117532;27;20031;-82
2023/10/24 10:50:32;;;;;;;;;;;12.40;99.80;;;;;;5113126;27;19999;-82
2023/10/24 10:53:14;;;;;;;;;;;12.40;99.80;;;;;;5116814;27;20009;-82
2023/10/24 10:56:04;;;;;;;;;;;12.40;99.70;;;;;;5119005;27;20494;-81
2023/10/24 10:58:42;;;;;;;;;;;12.50;99.80;;;;;;5102825;27;19983;-81
2023/10/24 11:01:13;;;;;;;;;;;12.40;99.80;;;;;;5120346;28;20076;-81
2023/10/24 11:03:42;;;;;;;;;;;12.50;99.80;;;;;;5119393;27;19998;-82
2023/10/24 11:06:14;;;;;;;;;;;12.50;99.80;;;;;;5119545;27;19981;-82
2023/10/24 11:08:41;;;;;;;;;;;12.50;99.90;;;;;;5119779;27;19979;-81
2023/10/24 11:11:09;;;;;;;;;;;12.50;99.90;;;;;;5113269;28;19979;-83
2023/10/24 11:13:37;;;;;;;;;;;12.50;99.90;;;;;;5117050;27;19998;-83
2023/10/24 11:16:05;;;;;;;;;;;12.50;99.90;;;;;;5117673;27;19994;-83
2023/10/24 11:18:35;;;;;;;;;;;12.50;99.90;;;;;;5120984;27;19981;-83
2023/10/24 11:21:03;;;;;;;;;;;12.50;99.90;;;;;;5120979;27;19986;-83
2023/10/24 11:23:30;;;;;;;;;;;12.50;99.90;;;;;;5119431;27;19991;-83
2023/10/24 11:25:57;;;;;;;;;;;12.50;99.90;;;;;;5118582;27;20033;-83
2023/10/24 11:28:25;;;;;;;;;;;12.50;99.90;;;;;;5115805;27;19983;-83
2023/10/24 11:30:51;;;;;;;;;;;12.50;99.90;;;;;;5113595;27;19995;-83
2023/10/24 11:33:18;;;;;;;;;;;12.50;99.90;;;;;;5120504;27;20529;-83
2023/10/24 11:36:01;;;;;;;;;;;12.50;99.90;;;;;;5118228;27;19974;-83
2023/10/24 11:38:29;;;;;;;;;;;12.60;99.90;;;;;;5126894;27;20016;-83
2023/10/24 11:40:55;;;;;;;;;;;12.60;99.90;;;;;;5118342;27;19978;-83
2023/10/24 11:43:22;;;;;;;;;;;12.60;99.90;;;;;;5123939;27;20408;-83
2023/10/24 11:45:49;;;;;;;;;;;12.60;99.90;;;;;;5118999;27;19996;-84
2023/10/24 11:48:15;;;;;;;;;;;12.60;99.90;;;;;;5122207;27;20487;-83
2023/10/24 11:50:43;;;;;;;;;;;12.60;99.90;;;;;;5119151;27;19978;-84
2023/10/24 11:53:10;;;;;;;;;;;12.60;99.90;;;;;;5116507;27;20073;-83
2023/10/24 11:55:38;;;;;;;;;;;12.60;99.90;;;;;;5127020;27;19975;-83
2023/10/24 11:58:09;;;;;;;;;;;12.60;99.90;;;;;;5122987;27;20098;-83
2023/10/24 12:00:38;;;;;;;;;;;12.60;99.90;;;;;;5116037;27;19986;-84
2023/10/24 12:03:05;;;;;;;;;;;12.60;99.90;;;;;;5096680;27;19994;-83
2023/10/24 12:05:31;;;;;;;;;;;12.60;99.90;;;;;;5103218;28;20406;-82
2023/10/24 12:07:59;;;;;;;;;;;12.60;99.90;;;;;;5101367;27;20031;-83
2023/10/24 12:10:26;;;;;;;;;;;12.60;99.90;;;;;;5102000;27;20051;-83
2023/10/24 12:13:07;;;;;;;;;;;12.60;99.90;;;;;;5103895;27;20003;-83
2023/10/24 12:15:33;;;;;;;;;;;12.60;99.90;;;;;;5100085;27;20418;-82
2023/10/24 12:18:04;;;;;;;;;;;12.60;99.90;;;;;;5096486;27;19979;-82
2023/10/24 12:20:31;;;;;;;;;;;12.70;99.90;;;;;;5099295;28;20085;-82
2023/10/24 12:22:58;;;;;;;;;;;12.70;99.90;;;;;;5096723;27;20098;-82
2023/10/24 12:25:24;;;;;;;;;;;12.70;99.90;;;;;;5096005;28;19987;-82
2023/10/24 12:30:33;;;;;;;;;;;12.70;99.80;;;;;;5097645;27;20538;-82
2023/10/24 12:33:05;;;;;;;;;;;12.70;99.80;;;;;;5102353;27;19999;-82
2023/10/24 12:35:39;;;;;;;;;;;12.70;99.80;;;;;;5099241;28;20049;-82
2023/10/24 12:38:06;;;;;;;;;;;12.70;99.80;;;;;;5099185;27;20000;-82
2023/10/24 12:40:32;;;;;;;;;;;12.70;99.80;;;;;;5098413;27;20065;-82
2023/10/24 12:42:59;;;;;;;;;;;12.70;99.80;;;;;;5117167;27;20104;-82
2023/10/24 12:45:26;;;;;;;;;;;12.70;99.80;;;;;;5098798;27;19998;-82
2023/10/24 12:47:56;;;;;;;;;;;12.70;99.80;;;;;;5095881;27;20529;-82
2023/10/24 12:50:23;;;;;;;;;;;12.80;99.80;;;;;;5095326;27;19975;-82
2023/10/24 12:52:49;;;;;;;;;;;12.70;99.70;;;;;;5102408;27;19998;-82
2023/10/24 12:55:16;;;;;;;;;;;12.70;99.80;;;;;;5093260;28;19986;-82
2023/10/24 12:57:44;;;;;;;;;;;12.70;99.70;;;;;;5097944;28;19982;-82
2023/10/24 13:00:11;;;;;;;;;;;12.70;99.80;;;;;;5099182;27;20641;-81
2023/10/24 13:02:38;;;;;;;;;;;12.70;99.80;;;;;;5103736;27;20002;-82
2023/10/24 13:05:12;;;;;;;;;;;12.80;99.90;;;;;;5087492;27;19995;-82
2023/10/24 13:07:39;;;;;;;;;;;12.70;99.90;;;;;;5107645;27;19974;-81
2023/10/24 13:10:08;;;;;;;;;;;12.80;99.90;;;;;;5100221;28;19986;-81
2023/10/24 13:12:35;;;;;;;;;;;12.80;99.90;;;;;;5104723;27;20542;-81
2023/10/24 13:15:03;;;;;;;;;;;12.80;99.90;;;;;;5103856;27;19978;-81
2023/10/24 13:17:30;;;;;;;;;;;12.80;99.90;;;;;;5101369;27;19996;-81
2023/10/24 13:19:57;;;;;;;;;;;12.80;99.90;;;;;;5099957;28;19986;-81
2023/10/24 13:22:26;;;;;;;;;;;12.80;99.90;;;;;;5099893;27;19995;-82
2023/10/24 13:24:52;;;;;;;;;;;12.90;99.90;;;;;;5099228;27;19999;-81
2023/10/24 13:27:19;;;;;;;;;;;12.80;99.90;;;;;;5104576;27;20578;-82
2023/10/24 13:29:49;;;;;;;;;;;12.90;99.90;;;;;;5097271;27;20500;-81
2023/10/24 13:32:15;;;;;;;;;;;12.90;99.90;;;;;;5104602;27;20722;-82
2023/10/24 13:34:42;;;;;;;;;;;12.90;99.90;;;;;;5096704;28;20345;-81
2023/10/24 13:37:09;;;;;;;;;;;13.00;99.90;;;;;;5095651;27;19990;-81
2023/10/24 13:39:37;;;;;;;;;;;12.90;99.90;;;;;;5100804;28;19981;-82
2023/10/24 13:42:04;;;;;;;;;;;13.00;99.90;;;;;;5102537;27;19994;-82
2023/10/24 13:44:31;;;;;;;;;;;12.90;99.90;;;;;;5099901;27;19978;-81
2023/10/24 13:46:57;;;;;;;;;;;13.00;99.90;;;;;;5100513;27;20038;-82
2023/10/24 13:49:24;;;;;;;;;;;13.00;99.90;;;;;;5097781;27;19997;-81
2023/10/24 13:51:50;;;;;;;;;;;13.00;99.90;;;;;;5106694;27;19994;-82
2023/10/24 13:54:17;;;;;;;;;;;13.00;99.90;;;;;;5097318;27;19979;-82
2023/10/24 13:56:45;;;;;;;;;;;13.00;99.90;;;;;;5105023;27;19974;-81
2023/10/24 13:59:12;;;;;;;;;;;13.10;99.90;;;;;;5098411;28;20476;-81
2023/10/24 14:01:39;;;;;;;;;;;13.00;99.90;;;;;;5097583;27;20383;-82
2023/10/24 14:04:05;;;;;;;;;;;13.10;99.90;;;;;;5098565;28;19992;-82
2023/10/24 14:06:32;;;;;;;;;;;13.10;99.90;;;;;;5097402;28;20081;-82
2023/10/24 14:08:59;;;;;;;;;;;13.10;99.90;;;;;;5095429;27;19978;-82
2023/10/24 14:11:26;;;;;;;;;;;13.10;99.90;;;;;;5093723;28;20542;-82
2023/10/24 14:13:54;;;;;;;;;;;13.10;99.90;;;;;;5097732;28;20409;-82
2023/10/24 14:16:20;;;;;;;;;;;13.10;99.90;;;;;;5093755;27;20002;-82
2023/10/24 14:18:47;;;;;;;;;;;13.10;99.90;;;;;;5093778;28;19981;-81
2023/10/24 14:21:14;;;;;;;;;;;13.20;99.90;;;;;;5095125;28;19987;-82